sensor_id;sensor_type;location;lat;lon;timestamp;pressure;altitude;pressure_sealevel;temperature;humidity
60817;BME280;51921;51.518;-3.188;2022-10-16T00:00:09;100071.55;;;6.35;100.00
60817;BME280;51921;51.518;-3.188;2022-10-16T00:02:33;100066.11;;;5.95;100.00
60817;BME280;51921;51.518;-3.188;2022-10-16T00:04:59;100062.23;;;6.86;100.00
60817;BME280;51921;51.518;-3.188;2022-10-16T00:07:24;100058.33;;;7.23;100.00
60817;BME280;51921;51.518;-3.188;2022-10-16T00:09:49;100063.72;;;7.51;100.00
60817;BME280;51921;51.518;-3.188;2022-10-16T00:12:15;100068.54;;;6.55;100.00
60817;BME280;51921;51.518;-3.188;2022-10-16T00:14:40;100068.95;;;7.06;100.00
60817;BME280;51921;51.518;-3.188;2022-10-16T00:17:06;100066.98;;;7.36;100.00
60817;BME280;51921;51.518;-3.188;2022-10-16T00:19:31;100069.94;;;7.11;100.00
60817;BME280;51921;51.518;-3.188;2022-10-16T00:21:57;100071.10;;;7.67;100.00
60817;BME280;51921;51.518;-3.188;2022-10-16T00:24:22;100073.81;;;7.75;100.00
60817;BME280;51921;51.518;-3.188;2022-10-16T00:26:50;100071.93;;;8.17;100.00
60817;BME280;51921;51.518;-3.188;2022-10-16T00:29:13;100076.17;;;8.34;100.00
60817;BME280;51921;51.518;-3.188;2022-10-16T00:31:39;100068.16;;;8.67;100.00
60817;BME280;51921;51.518;-3.188;2022-10-16T00:34:04;100067.75;;;8.47;100.00
60817;BME280;51921;51.518;-3.188;2022-10-16T00:36:30;100055.80;;;8.62;100.00
60817;BME280;51921;51.518;-3.188;2022-10-16T00:38:57;100057.64;;;8.46;100.00
60817;BME280;51921;51.518;-3.188;2022-10-16T00:41:23;100058.60;;;8.61;100.00
60817;BME280;51921;51.518;-3.188;2022-10-16T00:43:48;100052.22;;;8.83;100.00
60817;BME280;51921;51.518;-3.188;2022-10-16T00:46:17;100051.95;;;8.57;100.00
60817;BME280;51921;51.518;-3.188;2022-10-16T00:48:38;100053.77;;;8.95;100.00
60817;BME280;51921;51.518;-3.188;2022-10-16T00:51:04;100054.43;;;9.13;100.00
60817;BME280;51921;51.518;-3.188;2022-10-16T00:53:28;100051.51;;;10.57;95.21
60817;BME280;51921;51.518;-3.188;2022-10-16T00:55:54;100059.12;;;9.48;98.41
60817;BME280;51921;51.518;-3.188;2022-10-16T00:58:20;100051.91;;;8.52;100.00
60817;BME280;51921;51.518;-3.188;2022-10-16T01:00:44;100051.04;;;9.52;100.00
60817;BME280;51921;51.518;-3.188;2022-10-16T01:03:23;100047.26;;;9.36;100.00
60817;BME280;51921;51.518;-3.188;2022-10-16T01:05:41;100039.77;;;8.62;100.00
60817;BME280;51921;51.518;-3.188;2022-10-16T01:08:08;100040.90;;;8.40;100.00
60817;BME280;51921;51.518;-3.188;2022-10-16T01:10:31;100057.65;;;8.13;100.00
60817;BME280;51921;51.518;-3.188;2022-10-16T01:12:57;100066.10;;;8.13;100.00
60817;BME280;51921;51.518;-3.188;2022-10-16T01:15:22;100078.31;;;7.92;100.00
60817;BME280;51921;51.518;-3.188;2022-10-16T01:17:47;100102.01;;;7.95;100.00
60817;BME280;51921;51.518;-3.188;2022-10-16T01:20:16;100119.13;;;8.41;100.00
60817;BME280;51921;51.518;-3.188;2022-10-16T01:22:41;100122.39;;;7.53;100.00
60817;BME280;51921;51.518;-3.188;2022-10-16T01:25:00;100122.70;;;7.94;100.00
60817;BME280;51921;51.518;-3.188;2022-10-16T01:27:26;100098.94;;;7.55;100.00
60817;BME280;51921;51.518;-3.188;2022-10-16T01:29:53;100102.11;;;7.15;100.00
60817;BME280;51921;51.518;-3.188;2022-10-16T01:32:20;100113.73;;;6.94;100.00
60817;BME280;51921;51.518;-3.188;2022-10-16T01:34:47;100110.93;;;7.78;100.00
60817;BME280;51921;51.518;-3.188;2022-10-16T01:37:12;100107.20;;;8.15;100.00
60817;BME280;51921;51.518;-3.188;2022-10-16T01:39:34;100109.13;;;7.86;100.00
60817;BME280;51921;51.518;-3.188;2022-10-16T01:42:03;100109.27;;;7.61;100.00
60817;BME280;51921;51.518;-3.188;2022-10-16T01:44:25;100110.92;;;8.16;100.00
60817;BME280;51921;51.518;-3.188;2022-10-16T01:46:50;100112.61;;;8.60;100.00
60817;BME280;51921;51.518;-3.188;2022-10-16T01:49:14;100109.20;;;8.42;100.00
60817;BME280;51921;51.518;-3.188;2022-10-16T01:51:39;100118.22;;;8.81;100.00
60817;BME280;51921;51.518;-3.188;2022-10-16T01:54:07;100131.75;;;7.89;100.00
60817;BME280;51921;51.518;-3.188;2022-10-16T01:56:30;100137.17;;;8.26;100.00
60817;BME280;51921;51.518;-3.188;2022-10-16T01:58:58;100126.83;;;9.26;100.00
60817;BME280;51921;51.518;-3.188;2022-10-16T02:01:23;100130.22;;;8.89;100.00
60817;BME280;51921;51.518;-3.188;2022-10-16T02:03:49;100129.35;;;8.99;100.00
60817;BME280;51921;51.518;-3.188;2022-10-16T02:06:12;100142.62;;;9.63;100.00
60817;BME280;51921;51.518;-3.188;2022-10-16T02:08:38;100137.89;;;8.42;100.00
60817;BME280;51921;51.518;-3.188;2022-10-16T02:11:03;100133.55;;;8.12;100.00
60817;BME280;51921;51.518;-3.188;2022-10-16T02:13:31;100132.67;;;8.34;100.00
60817;BME280;51921;51.518;-3.188;2022-10-16T02:15:54;100130.75;;;8.69;100.00
60817;BME280;51921;51.518;-3.188;2022-10-16T02:18:19;100138.19;;;9.09;100.00
60817;BME280;51921;51.518;-3.188;2022-10-16T02:20:51;100143.10;;;9.11;100.00
60817;BME280;51921;51.518;-3.188;2022-10-16T02:23:13;100146.66;;;9.13;100.00
60817;BME280;51921;51.518;-3.188;2022-10-16T02:25:37;100145.33;;;8.92;100.00
60817;BME280;51921;51.518;-3.188;2022-10-16T02:28:04;100144.98;;;9.02;100.00
60817;BME280;51921;51.518;-3.188;2022-10-16T02:30:29;100147.14;;;8.98;100.00
60817;BME280;51921;51.518;-3.188;2022-10-16T02:32:52;100159.96;;;8.20;100.00
60817;BME280;51921;51.518;-3.188;2022-10-16T02:35:19;100183.71;;;9.67;100.00
60817;BME280;51921;51.518;-3.188;2022-10-16T02:37:42;100201.13;;;9.29;100.00
60817;BME280;51921;51.518;-3.188;2022-10-16T02:40:09;100202.04;;;7.34;100.00
60817;BME280;51921;51.518;-3.188;2022-10-16T02:42:35;100200.94;;;7.27;100.00
60817;BME280;51921;51.518;-3.188;2022-10-16T02:44:58;100209.07;;;7.54;100.00
60817;BME280;51921;51.518;-3.188;2022-10-16T02:47:24;100211.54;;;7.73;100.00
60817;BME280;51921;51.518;-3.188;2022-10-16T02:49:50;100209.72;;;8.28;100.00
60817;BME280;51921;51.518;-3.188;2022-10-16T02:52:15;100214.42;;;8.76;100.00
60817;BME280;51921;51.518;-3.188;2022-10-16T02:54:40;100216.61;;;8.33;100.00
60817;BME280;51921;51.518;-3.188;2022-10-16T02:57:05;100218.52;;;8.59;100.00
60817;BME280;51921;51.518;-3.188;2022-10-16T02:59:31;100221.26;;;9.03;100.00
60817;BME280;51921;51.518;-3.188;2022-10-16T03:01:56;100226.41;;;8.24;100.00
60817;BME280;51921;51.518;-3.188;2022-10-16T03:04:22;100230.05;;;9.34;100.00
60817;BME280;51921;51.518;-3.188;2022-10-16T03:06:47;100229.32;;;9.43;100.00
60817;BME280;51921;51.518;-3.188;2022-10-16T03:09:13;100231.50;;;8.73;100.00
60817;BME280;51921;51.518;-3.188;2022-10-16T03:11:38;100235.32;;;9.78;100.00
60817;BME280;51921;51.518;-3.188;2022-10-16T03:14:04;100239.99;;;9.84;99.10
60817;BME280;51921;51.518;-3.188;2022-10-16T03:16:29;100243.17;;;10.20;97.07
60817;BME280;51921;51.518;-3.188;2022-10-16T03:18:55;100243.66;;;9.33;98.87
60817;BME280;51921;51.518;-3.188;2022-10-16T03:21:20;100243.07;;;10.37;96.33
60817;BME280;51921;51.518;-3.188;2022-10-16T03:23:46;100247.92;;;9.93;96.49
60817;BME280;51921;51.518;-3.188;2022-10-16T03:26:11;100255.11;;;10.50;94.58
60817;BME280;51921;51.518;-3.188;2022-10-16T03:28:37;100271.66;;;10.35;95.12
60817;BME280;51921;51.518;-3.188;2022-10-16T03:31:02;100268.78;;;9.96;96.58
60817;BME280;51921;51.518;-3.188;2022-10-16T03:33:28;100265.09;;;10.06;96.90
60817;BME280;51921;51.518;-3.188;2022-10-16T03:35:54;100263.60;;;9.30;100.00
60817;BME280;51921;51.518;-3.188;2022-10-16T03:38:19;100271.18;;;10.17;98.56
60817;BME280;51921;51.518;-3.188;2022-10-16T03:40:44;100276.20;;;9.55;99.57
60817;BME280;51921;51.518;-3.188;2022-10-16T03:43:09;100282.72;;;9.91;98.00
60817;BME280;51921;51.518;-3.188;2022-10-16T03:45:35;100287.76;;;10.50;97.31
60817;BME280;51921;51.518;-3.188;2022-10-16T03:48:00;100280.24;;;10.40;98.52
60817;BME280;51921;51.518;-3.188;2022-10-16T03:50:25;100286.60;;;9.55;99.78
60817;BME280;51921;51.518;-3.188;2022-10-16T03:52:51;100295.83;;;10.26;95.16
60817;BME280;51921;51.518;-3.188;2022-10-16T03:55:16;100297.79;;;10.73;92.83
60817;BME280;51921;51.518;-3.188;2022-10-16T03:57:42;100306.46;;;11.11;91.91
60817;BME280;51921;51.518;-3.188;2022-10-16T04:00:08;100304.80;;;10.31;93.80
60817;BME280;51921;51.518;-3.188;2022-10-16T04:02:33;100312.81;;;10.57;91.88
60817;BME280;51921;51.518;-3.188;2022-10-16T04:04:58;100311.46;;;9.92;92.84
60817;BME280;51921;51.518;-3.188;2022-10-16T04:07:24;100312.76;;;10.70;90.84
60817;BME280;51921;51.518;-3.188;2022-10-16T04:09:49;100321.66;;;9.37;94.35
60817;BME280;51921;51.518;-3.188;2022-10-16T04:12:15;100323.01;;;9.88;92.59
60817;BME280;51921;51.518;-3.188;2022-10-16T04:14:40;100323.46;;;10.05;91.69
60817;BME280;51921;51.518;-3.188;2022-10-16T04:17:06;100329.98;;;10.41;89.27
60817;BME280;51921;51.518;-3.188;2022-10-16T04:19:31;100339.10;;;11.17;86.82
60817;BME280;51921;51.518;-3.188;2022-10-16T04:21:57;100341.81;;;10.68;85.93
60817;BME280;51921;51.518;-3.188;2022-10-16T04:24:22;100347.41;;;11.10;86.34
60817;BME280;51921;51.518;-3.188;2022-10-16T04:26:47;100353.83;;;11.78;83.15
60817;BME280;51921;51.518;-3.188;2022-10-16T04:29:13;100363.63;;;11.39;82.05
60817;BME280;51921;51.518;-3.188;2022-10-16T04:31:38;100369.08;;;11.86;81.38
60817;BME280;51921;51.518;-3.188;2022-10-16T04:34:04;100374.45;;;11.42;81.20
60817;BME280;51921;51.518;-3.188;2022-10-16T04:36:29;100376.58;;;11.21;81.89
60817;BME280;51921;51.518;-3.188;2022-10-16T04:38:55;100382.84;;;11.49;80.56
60817;BME280;51921;51.518;-3.188;2022-10-16T04:41:20;100390.43;;;11.81;79.77
60817;BME280;51921;51.518;-3.188;2022-10-16T04:43:46;100393.82;;;10.45;81.35
60817;BME280;51921;51.518;-3.188;2022-10-16T04:46:11;100396.56;;;11.52;79.47
60817;BME280;51921;51.518;-3.188;2022-10-16T04:48:37;100393.29;;;9.94;83.22
60817;BME280;51921;51.518;-3.188;2022-10-16T04:51:02;100397.62;;;11.10;81.60
60817;BME280;51921;51.518;-3.188;2022-10-16T04:53:27;100401.35;;;11.30;80.19
60817;BME280;51921;51.518;-3.188;2022-10-16T04:55:53;100400.90;;;10.26;82.21
60817;BME280;51921;51.518;-3.188;2022-10-16T04:58:18;100407.79;;;11.00;81.31
60817;BME280;51921;51.518;-3.188;2022-10-16T05:00:44;100409.95;;;11.20;79.91
60817;BME280;51921;51.518;-3.188;2022-10-16T05:03:09;100414.52;;;11.41;78.75
60817;BME280;51921;51.518;-3.188;2022-10-16T05:05:34;100417.24;;;11.69;76.24
60817;BME280;51921;51.518;-3.188;2022-10-16T05:08:00;100416.92;;;11.03;78.45
60817;BME280;51921;51.518;-3.188;2022-10-16T05:10:25;100416.02;;;10.96;78.82
60817;BME280;51921;51.518;-3.188;2022-10-16T05:12:51;100421.93;;;10.12;80.99
60817;BME280;51921;51.518;-3.188;2022-10-16T05:15:16;100425.76;;;10.24;81.31
60817;BME280;51921;51.518;-3.188;2022-10-16T05:17:42;100427.90;;;10.49;78.58
60817;BME280;51921;51.518;-3.188;2022-10-16T05:20:08;100432.20;;;10.25;80.10
60817;BME280;51921;51.518;-3.188;2022-10-16T05:22:33;100435.18;;;10.31;80.28
60817;BME280;51921;51.518;-3.188;2022-10-16T05:24:58;100440.45;;;10.63;80.19
60817;BME280;51921;51.518;-3.188;2022-10-16T05:27:24;100438.07;;;10.75;78.65
60817;BME280;51921;51.518;-3.188;2022-10-16T05:29:49;100444.54;;;9.67;83.08
60817;BME280;51921;51.518;-3.188;2022-10-16T05:32:16;100445.86;;;11.03;80.44
60817;BME280;51921;51.518;-3.188;2022-10-16T05:34:40;100449.33;;;9.99;81.42
60817;BME280;51921;51.518;-3.188;2022-10-16T05:37:06;100454.24;;;9.99;82.00
60817;BME280;51921;51.518;-3.188;2022-10-16T05:39:31;100459.99;;;10.34;81.25
60817;BME280;51921;51.518;-3.188;2022-10-16T05:41:57;100463.12;;;10.66;80.43
60817;BME280;51921;51.518;-3.188;2022-10-16T05:44:22;100474.24;;;7.63;89.58
60817;BME280;51921;51.518;-3.188;2022-10-16T05:46:48;100478.43;;;5.44;100.00
60817;BME280;51921;51.518;-3.188;2022-10-16T05:49:13;100476.84;;;5.67;100.00
60817;BME280;51921;51.518;-3.188;2022-10-16T05:51:39;100476.71;;;5.53;100.00
60817;BME280;51921;51.518;-3.188;2022-10-16T05:54:04;100481.83;;;5.72;100.00
60817;BME280;51921;51.518;-3.188;2022-10-16T05:56:30;100485.27;;;6.43;100.00
60817;BME280;51921;51.518;-3.188;2022-10-16T05:58:55;100489.24;;;6.52;100.00
60817;BME280;51921;51.518;-3.188;2022-10-16T06:01:21;100487.63;;;6.49;100.00
60817;BME280;51921;51.518;-3.188;2022-10-16T06:03:46;100493.82;;;5.16;100.00
60817;BME280;51921;51.518;-3.188;2022-10-16T06:06:13;100498.53;;;5.95;100.00
60817;BME280;51921;51.518;-3.188;2022-10-16T06:08:38;100497.82;;;6.89;100.00
60817;BME280;51921;51.518;-3.188;2022-10-16T06:11:03;100498.78;;;7.37;99.12
60817;BME280;51921;51.518;-3.188;2022-10-16T06:13:28;100497.26;;;6.45;100.00
60817;BME280;51921;51.518;-3.188;2022-10-16T06:15:57;100502.92;;;5.91;100.00
60817;BME280;51921;51.518;-3.188;2022-10-16T06:18:19;100506.21;;;7.09;100.00
60817;BME280;51921;51.518;-3.188;2022-10-16T06:20:45;100508.05;;;7.31;95.85
60817;BME280;51921;51.518;-3.188;2022-10-16T06:23:10;100514.13;;;7.45;95.47
60817;BME280;51921;51.518;-3.188;2022-10-16T06:25:36;100523.72;;;8.77;90.04
60817;BME280;51921;51.518;-3.188;2022-10-16T06:28:01;100527.47;;;8.68;91.13
60817;BME280;51921;51.518;-3.188;2022-10-16T06:30:27;100533.36;;;8.57;91.12
60817;BME280;51921;51.518;-3.188;2022-10-16T06:32:52;100526.95;;;8.34;91.92
60817;BME280;51921;51.518;-3.188;2022-10-16T06:35:18;100521.68;;;9.37;88.92
60817;BME280;51921;51.518;-3.188;2022-10-16T06:37:44;100528.65;;;9.52;88.40
60817;BME280;51921;51.518;-3.188;2022-10-16T06:40:09;100532.94;;;9.35;87.64
60817;BME280;51921;51.518;-3.188;2022-10-16T06:42:34;100539.34;;;9.35;85.80
60817;BME280;51921;51.518;-3.188;2022-10-16T06:45:00;100549.03;;;7.98;90.80
60817;BME280;51921;51.518;-3.188;2022-10-16T06:47:25;100550.93;;;8.81;89.93
60817;BME280;51921;51.518;-3.188;2022-10-16T06:49:51;100544.68;;;9.07;87.34
60817;BME280;51921;51.518;-3.188;2022-10-16T06:52:16;100546.75;;;8.43;92.03
60817;BME280;51921;51.518;-3.188;2022-10-16T06:54:42;100545.73;;;9.80;84.78
60817;BME280;51921;51.518;-3.188;2022-10-16T06:57:08;100545.45;;;9.60;84.78
60817;BME280;51921;51.518;-3.188;2022-10-16T06:59:33;100550.90;;;6.88;96.35
60817;BME280;51921;51.518;-3.188;2022-10-16T07:01:59;100555.44;;;6.44;100.00
60817;BME280;51921;51.518;-3.188;2022-10-16T07:04:24;100563.76;;;5.43;100.00
60817;BME280;51921;51.518;-3.188;2022-10-16T07:06:50;100571.20;;;5.11;100.00
60817;BME280;51921;51.518;-3.188;2022-10-16T07:09:15;100578.18;;;4.99;100.00
60817;BME280;51921;51.518;-3.188;2022-10-16T07:11:41;100585.12;;;5.73;100.00
60817;BME280;51921;51.518;-3.188;2022-10-16T07:14:15;100585.56;;;7.81;100.00
60817;BME280;51921;51.518;-3.188;2022-10-16T07:16:33;100593.82;;;9.38;93.82
60817;BME280;51921;51.518;-3.188;2022-10-16T07:18:59;100594.40;;;6.49;100.00
60817;BME280;51921;51.518;-3.188;2022-10-16T07:21:23;100601.62;;;4.93;100.00
60817;BME280;51921;51.518;-3.188;2022-10-16T07:23:50;100607.55;;;5.20;100.00
60817;BME280;51921;51.518;-3.188;2022-10-16T07:26:14;100607.17;;;6.72;100.00
60817;BME280;51921;51.518;-3.188;2022-10-16T07:28:39;100606.56;;;7.64;100.00
60817;BME280;51921;51.518;-3.188;2022-10-16T07:31:07;100618.98;;;8.91;95.22
60817;BME280;51921;51.518;-3.188;2022-10-16T07:33:31;100629.28;;;8.83;95.33
60817;BME280;51921;51.518;-3.188;2022-10-16T07:35:57;100620.42;;;10.61;87.15
60817;BME280;51921;51.518;-3.188;2022-10-16T07:38:22;100621.16;;;8.46;92.67
60817;BME280;51921;51.518;-3.188;2022-10-16T07:40:48;100624.52;;;7.94;95.18
60817;BME280;51921;51.518;-3.188;2022-10-16T07:43:13;100634.87;;;9.37;91.94
60817;BME280;51921;51.518;-3.188;2022-10-16T07:45:46;100636.34;;;10.20;87.78
60817;BME280;51921;51.518;-3.188;2022-10-16T07:48:04;100636.70;;;9.77;86.75
60817;BME280;51921;51.518;-3.188;2022-10-16T07:50:29;100638.78;;;7.36;96.65
60817;BME280;51921;51.518;-3.188;2022-10-16T07:52:55;100644.46;;;7.23;100.00
60817;BME280;51921;51.518;-3.188;2022-10-16T07:55:20;100651.30;;;5.83;100.00
60817;BME280;51921;51.518;-3.188;2022-10-16T07:57:46;100649.57;;;6.19;100.00
60817;BME280;51921;51.518;-3.188;2022-10-16T08:00:12;100648.35;;;7.39;100.00
60817;BME280;51921;51.518;-3.188;2022-10-16T08:02:37;100653.47;;;8.28;100.00
60817;BME280;51921;51.518;-3.188;2022-10-16T08:05:02;100656.56;;;9.65;94.71
60817;BME280;51921;51.518;-3.188;2022-10-16T08:07:27;100654.43;;;9.50;91.48
60817;BME280;51921;51.518;-3.188;2022-10-16T08:09:53;100650.80;;;10.55;89.17
60817;BME280;51921;51.518;-3.188;2022-10-16T08:12:18;100658.31;;;9.91;89.12
60817;BME280;51921;51.518;-3.188;2022-10-16T08:14:44;100660.97;;;11.09;86.91
60817;BME280;51921;51.518;-3.188;2022-10-16T08:17:09;100662.99;;;9.87;88.61
60817;BME280;51921;51.518;-3.188;2022-10-16T08:19:35;100669.12;;;9.65;90.01
60817;BME280;51921;51.518;-3.188;2022-10-16T08:22:00;100672.36;;;9.47;91.37
60817;BME280;51921;51.518;-3.188;2022-10-16T08:24:25;100673.01;;;8.28;95.86
60817;BME280;51921;51.518;-3.188;2022-10-16T08:26:53;100673.49;;;7.26;100.00
60817;BME280;51921;51.518;-3.188;2022-10-16T08:29:16;100678.99;;;8.35;97.86
60817;BME280;51921;51.518;-3.188;2022-10-16T08:31:41;100685.96;;;8.01;100.00
60817;BME280;51921;51.518;-3.188;2022-10-16T08:34:07;100689.03;;;9.17;96.52
60817;BME280;51921;51.518;-3.188;2022-10-16T08:36:32;100686.03;;;8.78;98.12
60817;BME280;51921;51.518;-3.188;2022-10-16T08:38:58;100687.98;;;8.47;100.00
60817;BME280;51921;51.518;-3.188;2022-10-16T08:41:41;100685.15;;;7.83;100.00
60817;BME280;51921;51.518;-3.188;2022-10-16T08:44:00;100679.51;;;8.55;100.00
60817;BME280;51921;51.518;-3.188;2022-10-16T08:46:25;100673.77;;;8.93;99.62
60817;BME280;51921;51.518;-3.188;2022-10-16T08:48:46;100667.67;;;10.13;92.78
60817;BME280;51921;51.518;-3.188;2022-10-16T08:51:08;100670.84;;;13.18;83.82
60817;BME280;51921;51.518;-3.188;2022-10-16T08:53:36;100673.16;;;13.05;78.60
60817;BME280;51921;51.518;-3.188;2022-10-16T08:55:56;100677.06;;;14.73;77.76
60817;BME280;51921;51.518;-3.188;2022-10-16T08:58:26;100679.29;;;15.74;70.08
60817;BME280;51921;51.518;-3.188;2022-10-16T09:00:49;100686.55;;;11.31;82.45
60817;BME280;51921;51.518;-3.188;2022-10-16T09:03:21;100686.29;;;14.83;75.05
60817;BME280;51921;51.518;-3.188;2022-10-16T09:05:52;100684.28;;;12.04;83.17
60817;BME280;51921;51.518;-3.188;2022-10-16T09:08:10;100686.76;;;12.08;81.36
60817;BME280;51921;51.518;-3.188;2022-10-16T09:10:38;100690.33;;;11.14;79.05
60817;BME280;51921;51.518;-3.188;2022-10-16T09:13:00;100695.58;;;10.03;87.31
60817;BME280;51921;51.518;-3.188;2022-10-16T09:15:26;100699.23;;;9.63;93.29
60817;BME280;51921;51.518;-3.188;2022-10-16T09:17:52;100693.95;;;11.62;85.08
60817;BME280;51921;51.518;-3.188;2022-10-16T09:20:19;100695.93;;;10.67;88.16
60817;BME280;51921;51.518;-3.188;2022-10-16T09:22:36;100697.05;;;10.82;87.84
60817;BME280;51921;51.518;-3.188;2022-10-16T09:25:10;100691.84;;;10.75;88.43
60817;BME280;51921;51.518;-3.188;2022-10-16T09:27:27;100692.19;;;11.09;87.95
60817;BME280;51921;51.518;-3.188;2022-10-16T09:29:53;100697.10;;;9.15;97.61
60817;BME280;51921;51.518;-3.188;2022-10-16T09:32:19;100701.65;;;9.35;100.00
60817;BME280;51921;51.518;-3.188;2022-10-16T09:34:47;100698.25;;;9.32;98.92
60817;BME280;51921;51.518;-3.188;2022-10-16T09:37:12;100695.02;;;10.40;92.89
60817;BME280;51921;51.518;-3.188;2022-10-16T09:39:44;100693.10;;;10.23;95.00
60817;BME280;51921;51.518;-3.188;2022-10-16T09:42:00;100702.47;;;8.65;100.00
60817;BME280;51921;51.518;-3.188;2022-10-16T09:44:28;100701.49;;;8.39;100.00
60817;BME280;51921;51.518;-3.188;2022-10-16T09:47:01;100703.08;;;7.98;100.00
60817;BME280;51921;51.518;-3.188;2022-10-16T09:49:21;100701.74;;;8.21;100.00
60817;BME280;51921;51.518;-3.188;2022-10-16T09:51:41;100703.52;;;8.57;100.00
60817;BME280;51921;51.518;-3.188;2022-10-16T09:54:13;100706.61;;;9.56;100.00
60817;BME280;51921;51.518;-3.188;2022-10-16T09:56:34;100709.69;;;10.22;100.00
60817;BME280;51921;51.518;-3.188;2022-10-16T09:59:00;100713.56;;;10.06;100.00
60817;BME280;51921;51.518;-3.188;2022-10-16T10:01:27;100720.25;;;10.86;98.15
60817;BME280;51921;51.518;-3.188;2022-10-16T10:03:48;100731.48;;;9.17;100.00
60817;BME280;51921;51.518;-3.188;2022-10-16T10:06:18;100729.97;;;8.10;100.00
60817;BME280;51921;51.518;-3.188;2022-10-16T10:08:39;100728.44;;;8.15;100.00
60817;BME280;51921;51.518;-3.188;2022-10-16T10:11:04;100729.71;;;7.72;100.00
60817;BME280;51921;51.518;-3.188;2022-10-16T10:13:30;100729.41;;;8.48;100.00
60817;BME280;51921;51.518;-3.188;2022-10-16T10:15:55;100728.97;;;7.87;100.00
60817;BME280;51921;51.518;-3.188;2022-10-16T10:18:22;100732.31;;;7.77;100.00
60817;BME280;51921;51.518;-3.188;2022-10-16T10:20:57;100730.57;;;8.46;100.00
60817;BME280;51921;51.518;-3.188;2022-10-16T10:23:22;100728.57;;;7.89;100.00
60817;BME280;51921;51.518;-3.188;2022-10-16T10:25:46;100726.70;;;7.89;100.00
60817;BME280;51921;51.518;-3.188;2022-10-16T10:30:36;100707.84;;;9.30;100.00
60817;BME280;51921;51.518;-3.188;2022-10-16T10:33:07;100701.70;;;10.07;100.00
60817;BME280;51921;51.518;-3.188;2022-10-16T10:35:24;100689.64;;;11.09;100.00
60817;BME280;51921;51.518;-3.188;2022-10-16T10:37:56;100683.87;;;12.44;100.00
60817;BME280;51921;51.518;-3.188;2022-10-16T10:40:19;100689.69;;;12.41;99.56
60817;BME280;51921;51.518;-3.188;2022-10-16T10:42:41;100688.75;;;13.41;97.36
60817;BME280;51921;51.518;-3.188;2022-10-16T10:45:16;100687.51;;;12.94;94.11
60817;BME280;51921;51.518;-3.188;2022-10-16T10:47:36;100692.29;;;12.17;92.73
60817;BME280;51921;51.518;-3.188;2022-10-16T10:50:00;100696.06;;;13.61;89.18
60817;BME280;51921;51.518;-3.188;2022-10-16T10:52:31;100694.50;;;13.08;89.35
60817;BME280;51921;51.518;-3.188;2022-10-16T10:54:49;100694.79;;;13.36;90.74
60817;BME280;51921;51.518;-3.188;2022-10-16T10:57:12;100698.83;;;14.44;84.44
60817;BME280;51921;51.518;-3.188;2022-10-16T10:59:53;100700.90;;;14.11;81.72
60817;BME280;51921;51.518;-3.188;2022-10-16T11:02:01;100705.56;;;10.92;91.18
60817;BME280;51921;51.518;-3.188;2022-10-16T11:04:43;100705.39;;;11.56;89.82
60817;BME280;51921;51.518;-3.188;2022-10-16T11:06:52;100701.43;;;10.79;100.00
60817;BME280;51921;51.518;-3.188;2022-10-16T11:09:18;100699.22;;;11.44;97.52
60817;BME280;51921;51.518;-3.188;2022-10-16T11:11:43;100694.84;;;10.84;100.00
60817;BME280;51921;51.518;-3.188;2022-10-16T11:14:13;100690.08;;;12.21;91.02
60817;BME280;51921;51.518;-3.188;2022-10-16T11:16:35;100688.60;;;12.74;90.03
60817;BME280;51921;51.518;-3.188;2022-10-16T11:19:02;100691.23;;;12.79;85.98
60817;BME280;51921;51.518;-3.188;2022-10-16T11:21:24;100694.63;;;12.87;85.72
60817;BME280;51921;51.518;-3.188;2022-10-16T11:23:53;100697.31;;;14.51;75.62
60817;BME280;51921;51.518;-3.188;2022-10-16T11:26:16;100694.23;;;12.96;72.72
60817;BME280;51921;51.518;-3.188;2022-10-16T11:28:43;100694.20;;;14.28;73.35
60817;BME280;51921;51.518;-3.188;2022-10-16T11:31:09;100696.51;;;14.47;69.98
60817;BME280;51921;51.518;-3.188;2022-10-16T11:33:32;100698.74;;;11.55;81.09
60817;BME280;51921;51.518;-3.188;2022-10-16T11:36:00;100694.37;;;13.37;82.70
60817;BME280;51921;51.518;-3.188;2022-10-16T11:38:26;100692.71;;;12.01;84.10
60817;BME280;51921;51.518;-3.188;2022-10-16T11:40:48;100698.54;;;11.42;85.49
60817;BME280;51921;51.518;-3.188;2022-10-16T11:43:15;100698.16;;;14.30;75.77
60817;BME280;51921;51.518;-3.188;2022-10-16T11:45:39;100693.30;;;13.87;71.74
60817;BME280;51921;51.518;-3.188;2022-10-16T11:48:08;100687.39;;;14.83;70.26
60817;BME280;51921;51.518;-3.188;2022-10-16T11:50:31;100688.41;;;15.07;67.86
60817;BME280;51921;51.518;-3.188;2022-10-16T11:52:57;100693.07;;;14.58;70.28
60817;BME280;51921;51.518;-3.188;2022-10-16T11:55:21;100689.91;;;14.60;66.94
60817;BME280;51921;51.518;-3.188;2022-10-16T11:57:47;100687.70;;;15.13;68.97
60817;BME280;51921;51.518;-3.188;2022-10-16T12:00:18;100691.03;;;11.90;80.51
60817;BME280;51921;51.518;-3.188;2022-10-16T12:02:43;100689.88;;;10.50;86.02
60817;BME280;51921;51.518;-3.188;2022-10-16T12:05:07;100691.04;;;11.04;85.14
60817;BME280;51921;51.518;-3.188;2022-10-16T12:07:31;100693.79;;;10.00;83.79
60817;BME280;51921;51.518;-3.188;2022-10-16T12:09:50;100690.54;;;10.45;88.15
60817;BME280;51921;51.518;-3.188;2022-10-16T12:12:25;100685.86;;;10.67;85.91
60817;BME280;51921;51.518;-3.188;2022-10-16T12:14:41;100688.96;;;9.92;91.28
60817;BME280;51921;51.518;-3.188;2022-10-16T12:17:22;100682.45;;;12.76;80.80
60817;BME280;51921;51.518;-3.188;2022-10-16T12:19:32;100680.36;;;13.65;77.13
60817;BME280;51921;51.518;-3.188;2022-10-16T12:22:00;100679.92;;;10.97;81.04
60817;BME280;51921;51.518;-3.188;2022-10-16T12:24:31;100675.75;;;12.10;83.12
60817;BME280;51921;51.518;-3.188;2022-10-16T12:26:49;100675.91;;;13.90;73.39
60817;BME280;51921;51.518;-3.188;2022-10-16T12:29:19;100670.43;;;13.52;71.92
60817;BME280;51921;51.518;-3.188;2022-10-16T12:31:43;100667.82;;;14.93;65.35